Time;durP1;ratioP1;P1;durP2;ratioP2;P2;SDS_P1;SDS_P2;PMS_P1;PMS_P2;Temp;Humidity;BMP_temperature;BMP_pressure;BME280_temperature;BME280_humidity;BME280_pressure;Samples;Min_cycle;Max_cycle;Signal;HPM_P1;HPM_P2
2022/09/17 06:40:12;;;;;;;5.27;2.80;;;8.50;99.90;;;;;;4993916;28;20988;-83
2022/09/17 06:42:38;;;;;;;5.20;2.43;;;8.50;99.90;;;;;;4992432;28;20208;-83
2022/09/17 06:45:04;;;;;;;2.77;2.53;;;8.50;99.90;;;;;;4978659;28;20638;-84
2022/09/17 06:47:30;;;;;;;4.83;3.83;;;8.50;99.90;;;;;;4967033;28;20220;-83
2022/09/17 06:49:56;;;;;;;4.50;3.77;;;8.50;99.90;;;;;;4984746;28;20171;-82
2022/09/17 06:52:22;;;;;;;5.10;4.70;;;8.50;99.90;;;;;;4991620;28;20286;-84
2022/09/17 06:54:47;;;;;;;4.67;2.63;;;8.50;99.90;;;;;;4993185;28;20202;-84
2022/09/17 07:25:00;;;;;;;6.10;1.90;;;9.20;99.90;;;;;;5136657;27;20290;-83
2022/09/17 07:27:27;;;;;;;5.07;1.67;;;9.10;99.90;;;;;;5136530;28;20170;-82
2022/09/17 07:29:53;;;;;;;2.77;1.53;;;9.20;99.90;;;;;;5119411;28;20181;-84
2022/09/17 07:32:21;;;;;;;2.77;1.13;;;9.20;99.90;;;;;;5130008;28;20201;-84
2022/09/17 07:34:49;;;;;;;2.27;1.50;;;9.20;99.90;;;;;;5095970;28;20187;-84
2022/09/17 07:37:18;;;;;;;1.97;1.57;;;9.10;99.90;;;;;;5099280;28;20199;-83
2022/09/17 07:39:45;;;;;;;4.83;1.20;;;9.10;99.90;;;;;;5097409;28;20189;-82
2022/09/17 07:42:10;;;;;;;1.57;0.83;;;9.20;99.90;;;;;;5094992;28;20242;-83
2022/09/17 07:44:38;;;;;;;2.70;1.53;;;9.20;99.90;;;;;;5096725;28;20205;-84
2022/09/17 07:47:04;;;;;;;1.60;1.27;;;9.30;99.90;;;;;;5114874;28;20172;-82
2022/09/17 07:49:30;;;;;;;4.67;1.40;;;9.40;99.90;;;;;;5114962;28;20516;-84
2022/09/17 07:51:56;;;;;;;2.23;1.20;;;9.30;99.90;;;;;;5116525;28;20173;-84
2022/09/17 07:54:22;;;;;;;1.23;1.13;;;9.30;99.90;;;;;;5097806;28;20840;-83
2022/09/17 07:56:48;;;;;;;3.87;1.20;;;9.50;99.90;;;;;;5115214;28;20228;-84
2022/09/17 07:59:13;;;;;;;1.83;1.10;;;9.60;99.90;;;;;;5095187;28;20266;-86
2022/09/17 08:01:39;;;;;;;3.17;1.10;;;9.90;99.90;;;;;;5097389;28;20183;-85
2022/09/17 08:04:05;;;;;;;5.93;1.10;;;10.00;99.90;;;;;;5097193;28;20202;-85
2022/09/17 08:06:36;;;;;;;2.93;1.40;;;10.10;99.90;;;;;;5098270;28;20178;-86
2022/09/17 08:09:02;;;;;;;1.63;1.17;;;10.30;99.90;;;;;;5116242;28;20164;-85
2022/09/17 08:11:29;;;;;;;7.93;1.50;;;10.30;99.90;;;;;;5097689;28;20648;-85
2022/09/17 08:13:55;;;;;;;4.63;1.70;;;10.30;99.90;;;;;;5115864;28;20718;-85
2022/09/17 08:16:22;;;;;;;3.07;1.30;;;10.40;99.90;;;;;;5115710;28;20180;-86
2022/09/17 08:18:53;;;;;;;2.77;1.73;;;10.30;99.90;;;;;;5096387;28;20183;-84
2022/09/17 08:21:19;;;;;;;2.27;0.80;;;10.30;99.90;;;;;;5096080;28;20529;-85
2022/09/17 08:23:45;;;;;;;4.03;1.23;;;10.60;99.90;;;;;;5095074;28;20240;-85
2022/09/17 08:26:13;;;;;;;1.87;1.10;;;10.60;99.90;;;;;;5113415;28;20633;-84
2022/09/17 08:28:42;;;;;;;2.63;1.43;;;10.50;99.90;;;;;;5095424;28;20182;-83
2022/09/17 08:31:08;;;;;;;6.90;1.47;;;10.60;99.90;;;;;;5115308;28;20168;-83
2022/09/17 08:33:36;;;;;;;4.27;1.53;;;11.10;99.90;;;;;;5095588;28;20544;-83
2022/09/17 08:36:02;;;;;;;2.53;1.03;;;11.60;99.90;;;;;;5083220;28;20254;-83
2022/09/17 08:38:32;;;;;;;3.90;1.20;;;11.60;99.90;;;;;;5079971;28;20187;-83
2022/09/17 08:41:13;;;;;;;1.70;0.93;;;11.30;99.90;;;;;;5079553;28;20183;-84
2022/09/17 08:44:03;;;;;;;2.20;1.00;;;11.10;99.90;;;;;;5098504;28;20196;-84
2022/09/17 08:46:44;;;;;;;2.63;1.27;;;10.90;99.90;;;;;;5080190;28;20171;-84
2022/09/17 08:49:31;;;;;;;4.40;1.37;;;10.70;99.90;;;;;;5098393;28;20167;-86
2022/09/17 08:52:11;;;;;;;5.03;1.03;;;10.70;99.90;;;;;;5080914;28;20188;-82
2022/09/17 08:54:40;;;;;;;5.40;1.10;;;10.60;99.90;;;;;;5081351;28;20168;-84
2022/09/17 08:57:33;;;;;;;2.10;0.90;;;10.50;99.90;;;;;;5100484;28;20180;-83
2022/09/17 09:00:08;;;;;;;6.00;1.27;;;10.50;99.90;;;;;;5104568;28;20225;-83
2022/09/17 09:02:51;;;;;;;4.70;1.83;;;11.00;99.90;;;;;;5100386;28;20202;-83
2022/09/17 09:05:25;;;;;;;3.57;1.13;;;11.30;99.90;;;;;;5081999;28;20164;-84
2022/09/17 09:07:56;;;;;;;17.43;15.63;;;11.60;99.90;;;;;;5099308;28;20180;-83
2022/09/17 09:10:45;;;;;;;2.87;1.73;;;11.60;99.90;;;;;;5080600;28;20172;-84
2022/09/17 09:13:14;;;;;;;4.80;1.53;;;11.60;99.90;;;;;;5081188;28;20202;-82
2022/09/17 09:15:45;;;;;;;2.57;1.20;;;11.40;99.90;;;;;;5099533;28;20198;-84
2022/09/17 09:18:19;;;;;;;3.90;2.90;;;11.40;99.90;;;;;;5099213;28;20650;-83
2022/09/17 09:20:54;;;;;;;5.67;2.77;;;11.50;99.90;;;;;;5099701;28;20217;-84
2022/09/17 09:23:40;;;;;;;9.47;6.47;;;11.30;99.90;;;;;;5079434;28;20287;-83
2022/09/17 09:26:16;;;;;;;6.97;3.03;;;11.20;99.90;;;;;;5068425;28;20175;-82
2022/09/17 09:28:45;;;;;;;5.67;1.40;;;11.20;99.90;;;;;;5082458;28;20251;-83
2022/09/17 09:31:42;;;;;;;10.87;4.50;;;11.20;99.90;;;;;;5102880;28;20255;-83
2022/09/17 09:34:09;;;;;;;7.00;5.07;;;11.40;99.90;;;;;;5104790;28;20236;-84
2022/09/17 09:36:37;;;;;;;10.37;7.33;;;11.90;99.90;;;;;;5085599;28;20180;-86
2022/09/17 09:39:29;;;;;;;12.00;6.43;;;12.50;99.90;;;;;;5080660;28;20176;-83
2022/09/17 09:42:21;;;;;;;4.67;2.90;;;12.40;99.90;;;;;;5097298;28;20701;-83
2022/09/17 09:44:48;;;;;;;8.50;5.60;;;11.90;99.90;;;;;;5080540;28;20192;-83
2022/09/17 09:47:47;;;;;;;5.90;2.63;;;11.70;99.90;;;;;;5097847;28;20255;-82
2022/09/17 09:50:34;;;;;;;11.63;4.80;;;11.30;99.90;;;;;;5099146;28;20195;-83
2022/09/17 09:53:27;;;;;;;7.93;1.50;;;11.00;99.90;;;;;;5080455;28;20196;-83
2022/09/17 09:56:32;;;;;;;10.43;2.70;;;10.90;99.90;;;;;;5098681;28;20164;-84
2022/09/17 09:58:58;;;;;;;3.13;2.10;;;11.50;99.90;;;;;;5082005;28;20187;-86
2022/09/17 10:01:28;;;;;;;4.70;2.00;;;12.10;99.90;;;;;;5083436;28;20188;-83
2022/09/17 10:03:57;;;;;;;8.07;5.90;;;12.30;99.90;;;;;;5082358;28;20208;-84
2022/09/17 10:06:23;;;;;;;7.33;4.83;;;12.30;99.90;;;;;;5098814;28;20165;-88
2022/09/17 10:08:49;;;;;;;7.03;4.43;;;12.20;99.90;;;;;;5081779;28;20226;-83
2022/09/17 10:11:24;;;;;;;6.60;2.60;;;12.10;99.90;;;;;;5080778;28;20172;-86
2022/09/17 10:13:50;;;;;;;5.23;2.73;;;12.10;99.90;;;;;;5097822;28;20187;-84
2022/09/17 10:16:17;;;;;;;6.03;1.50;;;12.20;99.90;;;;;;5077853;28;20187;-84
2022/09/17 10:18:44;;;;;;;5.13;2.37;;;12.00;99.90;;;;;;5077602;28;20181;-84
2022/09/17 10:21:28;;;;;;;4.93;2.60;;;12.00;99.90;;;;;;5077791;28;20630;-83
2022/09/17 10:23:54;;;;;;;8.53;4.87;;;12.20;99.90;;;;;;5077575;28;20212;-84
2022/09/17 10:26:29;;;;;;;3.37;1.33;;;12.30;99.90;;;;;;5095678;28;20176;-82
2022/09/17 10:28:57;;;;;;;5.33;2.60;;;12.20;99.90;;;;;;5095548;28;20163;-84
2022/09/17 10:31:23;;;;;;;17.23;13.27;;;11.90;99.90;;;;;;5077743;28;20183;-84
2022/09/17 10:33:57;;;;;;;4.90;3.73;;;11.70;99.90;;;;;;5095831;28;20189;-87
2022/09/17 10:36:41;;;;;;;7.67;2.87;;;11.50;99.90;;;;;;5077753;28;20172;-84
2022/09/17 10:39:25;;;;;;;4.90;1.83;;;11.30;99.90;;;;;;5078959;28;20194;-84
2022/09/17 10:42:03;;;;;;;6.10;1.40;;;10.80;99.90;;;;;;5080608;28;20180;-84
2022/09/17 10:44:34;;;;;;;3.73;1.27;;;10.60;99.90;;;;;;5079447;28;20200;-83
2022/09/17 10:47:21;;;;;;;7.67;2.40;;;10.60;99.90;;;;;;5080464;28;20198;-83
2022/09/17 10:49:53;;;;;;;4.87;1.50;;;10.50;99.90;;;;;;5097572;28;20214;-84
2022/09/17 10:52:25;;;;;;;2.30;0.93;;;10.50;99.90;;;;;;5098736;28;20642;-84
2022/09/17 10:55:09;;;;;;;3.20;1.20;;;10.60;99.90;;;;;;5080642;28;20264;-83
2022/09/17 10:58:03;;;;;;;1.27;0.80;;;10.90;99.90;;;;;;5079158;28;20179;-84
2022/09/17 11:00:55;;;;;;;2.77;1.07;;;11.30;99.90;;;;;;5080027;28;20187;-85
2022/09/17 11:03:46;;;;;;;1.83;0.90;;;11.50;99.90;;;;;;5079489;28;20228;-83
2022/09/17 11:06:21;;;;;;;4.70;1.00;;;11.40;99.90;;;;;;5081090;28;20564;-84
2022/09/17 11:09:08;;;;;;;1.10;0.70;;;11.40;99.90;;;;;;5082220;28;20626;-84
2022/09/17 11:11:59;;;;;;;1.73;0.70;;;11.40;99.90;;;;;;5083887;28;20164;-85
2022/09/17 11:14:30;;;;;;;2.63;0.93;;;11.30;99.90;;;;;;5100995;28;20541;-86
2022/09/17 11:17:27;;;;;;;3.13;0.90;;;11.80;99.90;;;;;;5100407;28;20160;-84
2022/09/17 11:20:15;;;;;;;1.27;0.80;;;12.40;99.90;;;;;;5099948;28;20596;-85
2022/09/17 11:22:59;;;;;;;2.83;0.90;;;12.60;99.90;;;;;;5085162;28;20678;-85
2022/09/17 11:25:44;;;;;;;1.17;0.67;;;12.60;99.90;;;;;;5080606;28;20278;-85
2022/09/17 11:28:39;;;;;;;2.60;1.00;;;12.20;99.90;;;;;;5081181;28;20250;-84
2022/09/17 11:31:13;;;;;;;2.23;0.70;;;11.90;99.90;;;;;;5081711;28;20259;-87
2022/09/17 11:33:59;;;;;;;2.13;0.70;;;11.70;99.90;;;;;;5100844;28;20195;-87
2022/09/17 11:36:36;;;;;;;0.93;0.60;;;11.50;99.90;;;;;;5082978;28;20176;-86
2022/09/17 11:39:30;;;;;;;1.00;0.77;;;11.30;99.90;;;;;;5084876;28;20172;-86
2022/09/17 11:41:59;;;;;;;2.13;0.70;;;11.30;99.90;;;;;;5095864;28;20569;-86
2022/09/17 11:44:30;;;;;;;1.20;0.70;;;11.30;99.90;;;;;;5083266;28;20192;-86
2022/09/17 11:47:13;;;;;;;1.43;0.63;;;11.20;99.90;;;;;;5084252;28;20523;-85
2022/09/17 11:50:01;;;;;;;2.50;0.90;;;11.30;99.90;;;;;;5101133;28;20182;-87
2022/09/17 11:52:33;;;;;;;2.30;1.10;;;11.80;99.90;;;;;;5082066;28;20192;-84
2022/09/17 11:55:08;;;;;;;2.20;0.90;;;12.10;99.90;;;;;;5081414;28;20168;-87
2022/09/17 11:57:39;;;;;;;1.10;0.70;;;12.00;99.90;;;;;;5080387;28;20170;-84
2022/09/17 12:00:17;;;;;;;1.67;0.70;;;11.50;99.90;;;;;;5078654;28;20176;-82
2022/09/17 12:03:22;;;;;;;1.60;0.80;;;11.00;99.90;;;;;;5081024;28;20223;-85
2022/09/17 12:06:06;;;;;;;2.50;0.80;;;10.70;99.90;;;;;;5080643;28;20236;-85
2022/09/17 12:08:43;;;;;;;1.23;0.70;;;10.20;99.90;;;;;;5099825;28;20514;-86
2022/09/17 12:11:28;;;;;;;2.17;0.80;;;10.10;99.90;;;;;;5103259;28;20179;-86
2022/09/17 12:14:01;;;;;;;2.27;0.90;;;10.10;99.90;;;;;;5086963;28;20196;-85
2022/09/17 12:16:41;;;;;;;1.50;0.90;;;10.70;99.90;;;;;;5103781;28;20164;-85
2022/09/17 12:19:38;;;;;;;2.03;1.00;;;12.10;99.90;;;;;;5111253;28;20168;-87
2022/09/17 12:22:10;;;;;;;2.60;0.87;;;12.40;99.90;;;;;;5087317;28;20670;-85
2022/09/17 12:24:38;;;;;;;1.57;0.83;;;12.40;99.90;;;;;;5085859;28;20207;-87
2022/09/17 12:27:15;;;;;;;0.70;0.70;;;12.10;99.90;;;;;;5086437;28;20179;-87
2022/09/17 12:29:53;;;;;;;3.17;1.00;;;11.80;99.90;;;;;;5085458;28;20684;-87
2022/09/17 12:32:45;;;;;;;1.90;0.80;;;12.00;99.90;;;;;;5085856;28;20215;-86
2022/09/17 12:35:26;;;;;;;1.87;0.70;;;12.40;99.90;;;;;;5088157;28;20346;-85
2022/09/17 12:38:40;;;;;;;1.40;0.90;;;12.60;99.90;;;;;;5085587;28;20164;-86
2022/09/17 12:41:15;;;;;;;2.90;1.03;;;12.60;99.90;;;;;;5085848;28;20183;-86
2022/09/17 12:43:59;;;;;;;3.87;1.00;;;12.60;99.90;;;;;;5085178;28;20270;-87
2022/09/17 12:46:42;;;;;;;2.47;0.90;;;13.30;99.90;;;;;;5085127;28;20165;-85
2022/09/17 12:49:38;;;;;;;1.40;0.80;;;14.60;99.90;;;;;;5102754;28;20168;-86
2022/09/17 12:52:32;;;;;;;2.97;0.60;;;15.60;99.90;;;;;;5082984;28;20198;-87
2022/09/17 12:55:24;;;;;;;1.77;0.90;;;16.10;99.90;;;;;;5085116;28;20199;-87
2022/09/17 12:58:14;;;;;;;2.50;0.97;;;15.80;99.90;;;;;;5080549;28;20171;-86
2022/09/17 13:00:44;;;;;;;1.57;1.00;;;16.50;99.90;;;;;;5081841;28;20164;-85
2022/09/17 13:03:46;;;;;;;2.03;0.90;;;16.00;99.90;;;;;;5080635;28;20230;-85
2022/09/17 13:06:30;;;;;;;2.03;1.00;;;14.60;99.90;;;;;;5080922;28;20637;-85
2022/09/17 13:09:40;;;;;;;2.23;1.10;;;13.30;99.90;;;;;;5099081;28;20165;-85
2022/09/17 13:12:06;;;;;;;1.33;0.80;;;11.90;99.90;;;;;;5099534;28;20188;-85
2022/09/17 13:14:46;;;;;;;2.67;1.13;;;11.80;99.90;;;;;;5099936;28;20644;-84
2022/09/17 13:17:48;;;;;;;2.17;0.97;;;11.40;99.90;;;;;;5081615;28;20175;-86
2022/09/17 13:20:22;;;;;;;5.30;1.33;;;11.10;99.90;;;;;;5098617;28;20160;-86
2022/09/17 13:22:50;;;;;;;5.63;1.50;;;11.00;99.90;;;;;;5079929;28;20200;-87
2022/09/17 13:25:18;;;;;;;6.33;1.60;;;10.80;99.90;;;;;;5082766;28;20172;-86
2022/09/17 13:27:46;;;;;;;3.73;1.57;;;10.60;99.90;;;;;;5100555;28;20660;-86
2022/09/17 13:30:21;;;;;;;10.87;1.70;;;10.40;99.90;;;;;;5082849;28;20184;-86
2022/09/17 13:32:49;;;;;;;3.97;1.43;;;10.40;99.90;;;;;;5083895;28;20227;-87
2022/09/17 13:35:14;;;;;;;4.27;1.10;;;10.80;99.90;;;;;;5083407;28;20168;-87
2022/09/17 13:37:54;;;;;;;2.43;0.70;;;11.30;99.90;;;;;;5100166;28;20243;-87
2022/09/17 13:40:34;;;;;;;1.77;1.03;;;11.50;99.90;;;;;;5082268;28;20168;-88
2022/09/17 13:43:05;;;;;;;3.30;0.83;;;11.50;99.90;;;;;;5099657;28;20184;-87
2022/09/17 13:45:32;;;;;;;3.33;1.17;;;12.70;99.90;;;;;;5098337;28;20195;-88
2022/09/17 13:48:10;;;;;;;1.43;0.87;;;12.90;99.90;;;;;;5078916;28;20545;-86
2022/09/17 13:50:41;;;;;;;2.50;0.90;;;12.70;99.90;;;;;;5079899;28;20165;-87
2022/09/17 13:53:15;;;;;;;3.13;1.00;;;12.20;99.90;;;;;;5096988;28;20191;-87
2022/09/17 13:55:44;;;;;;;3.60;0.90;;;12.00;99.90;;;;;;5079116;28;20717;-87
2022/09/17 13:58:23;;;;;;;2.50;0.90;;;11.80;99.90;;;;;;5080277;28;20214;-87
2022/09/17 14:01:47;;;;;;;4.77;1.10;;;11.80;99.90;;;;;;5078942;28;20178;-87
2022/09/17 14:04:45;;;;;;;4.03;1.20;;;11.90;99.90;;;;;;4961692;28;20223;-87
2022/09/17 14:07:30;;;;;;;3.57;1.00;;;12.90;99.90;;;;;;5080290;28;20538;-87
2022/09/17 14:09:56;;;;;;;4.33;1.20;;;12.90;99.90;;;;;;5097961;28;20160;-87
2022/09/17 14:12:38;;;;;;;3.33;1.30;;;12.70;99.90;;;;;;5079486;28;20245;-88
2022/09/17 14:15:38;;;;;;;1.03;0.80;;;12.60;99.90;;;;;;5080192;28;20181;-87
2022/09/17 14:18:26;;;;;;;8.00;1.40;;;12.40;99.90;;;;;;5080189;28;20222;-87
2022/09/17 14:20:54;;;;;;;2.37;0.80;;;12.20;99.90;;;;;;5080446;28;20242;-87
2022/09/17 14:23:20;;;;;;;2.20;1.10;;;12.20;99.90;;;;;;5078519;28;20234;-87
2022/09/17 14:25:54;;;;;;;4.93;1.47;;;12.30;99.90;;;;;;5079609;28;20647;-87
2022/09/17 14:28:32;;;;;;;2.03;1.00;;;13.50;99.90;;;;;;5079355;28;20164;-86
2022/09/17 14:31:01;;;;;;;2.37;1.03;;;14.80;99.90;;;;;;5078758;28;20164;-88
2022/09/17 14:33:30;;;;;;;1.60;0.90;;;15.70;99.90;;;;;;5077731;28;20742;-85
2022/09/17 14:36:08;;;;;;;1.93;0.73;;;16.20;99.90;;;;;;5078120;28;20186;-88
2022/09/17 14:38:43;;;;;;;6.53;3.23;;;15.10;99.90;;;;;;5097147;28;20156;-86
2022/09/17 14:41:11;;;;;;;1.63;1.00;;;13.90;99.90;;;;;;5078276;28;20176;-86
2022/09/17 14:43:53;;;;;;;1.27;0.87;;;13.10;99.90;;;;;;5077961;28;20211;-86
2022/09/17 14:46:23;;;;;;;2.43;1.30;;;12.60;99.90;;;;;;5078874;28;20207;-88
2022/09/17 14:48:49;;;;;;;2.90;0.87;;;12.20;99.90;;;;;;5077877;28;20544;-88
2022/09/17 14:51:18;;;;;;;8.23;2.97;;;12.00;99.90;;;;;;5079353;28;20176;-88
2022/09/17 14:54:04;;;;;;;3.97;1.00;;;11.80;99.90;;;;;;5079708;28;20299;-87
2022/09/17 14:56:32;;;;;;;2.17;1.10;;;11.70;99.90;;;;;;5078215;28;20186;-87
2022/09/17 14:58:58;;;;;;;2.27;0.90;;;11.30;99.90;;;;;;5077324;28;20294;-88
2022/09/17 15:01:25;;;;;;;5.00;1.10;;;11.20;99.90;;;;;;5078464;28;20179;-88
2022/09/17 15:04:13;;;;;;;1.80;0.70;;;11.20;99.90;;;;;;5077422;28;20250;-88
2022/09/17 15:06:43;;;;;;;2.23;0.80;;;11.20;99.90;;;;;;5062556;28;20184;-87
2022/09/17 15:09:16;;;;;;;1.73;0.80;;;11.20;99.90;;;;;;5097066;28;20218;-87
2022/09/17 15:11:44;;;;;;;1.83;0.90;;;;;;;;;;5077877;28;20668;-86
2022/09/17 15:14:20;;;;;;;2.87;0.83;;;11.00;99.90;;;;;;5077418;28;20587;-87
2022/09/17 15:16:54;;;;;;;1.13;0.90;;;11.00;99.90;;;;;;5083193;28;20243;-86
2022/09/17 15:19:27;;;;;;;1.93;0.80;;;11.00;99.90;;;;;;5081161;28;20171;-87
2022/09/17 15:21:56;;;;;;;1.43;0.90;;;10.90;99.90;;;;;;5080251;28;20175;-87
2022/09/17 15:24:46;;;;;;;2.43;2.13;;;10.80;99.90;;;;;;5079340;28;20222;-89
2022/09/17 15:27:27;;;;;;;1.20;1.10;;;10.60;99.90;;;;;;5079468;28;20191;-88
2022/09/17 15:30:01;;;;;;;1.90;0.90;;;10.50;99.90;;;;;;5082704;28;20175;-88
2022/09/17 15:32:27;;;;;;;3.27;1.40;;;10.40;99.90;;;;;;5081752;28;20225;-89
2022/09/17 15:35:18;;;;;;;2.03;1.30;;;10.40;99.90;;;;;;5086573;28;20648;-88
2022/09/17 15:37:52;;;;;;;1.93;1.37;;;10.30;99.90;;;;;;5092192;28;20195;-87
2022/09/17 15:40:26;;;;;;;2.50;1.10;;;10.30;99.90;;;;;;5084799;28;20183;-86
2022/09/17 15:43:11;;;;;;;1.77;1.17;;;10.10;99.90;;;;;;5081233;28;20199;-85
2022/09/17 15:45:38;;;;;;;15.17;10.33;;;10.10;99.90;;;;;;5079635;28;20570;-84
2022/09/17 15:48:05;;;;;;;2.67;2.20;;;10.00;99.90;;;;;;5083141;28;20190;-85
2022/09/17 15:50:48;;;;;;;4.10;2.33;;;9.90;99.90;;;;;;5082034;28;20180;-84
2022/09/17 15:53:20;;;;;;;4.87;1.40;;;9.90;99.90;;;;;;5099521;28;20279;-84
2022/09/17 15:56:00;;;;;;;2.03;1.07;;;9.10;99.90;;;;;;5081955;28;20177;-84
2022/09/17 15:58:28;;;;;;;1.57;1.13;;;8.40;99.90;;;;;;5083413;28;20204;-83
2022/09/17 16:01:13;;;;;;;5.17;1.00;;;8.20;99.90;;;;;;5103664;28;20175;-84
2022/09/17 16:03:38;;;;;;;1.77;1.03;;;8.10;99.90;;;;;;5103507;28;20204;-84
2022/09/17 16:06:19;;;;;;;2.60;1.10;;;8.10;99.90;;;;;;5102748;28;20186;-84
2022/09/17 16:08:53;;;;;;;1.27;1.10;;;8.10;99.90;;;;;;5085291;28;20185;-84
2022/09/17 16:11:22;;;;;;;1.50;1.40;;;8.10;99.90;;;;;;5103576;28;20172;-85
2022/09/17 16:13:48;;;;;;;2.50;1.70;;;8.00;99.90;;;;;;5103298;28;20208;-84
2022/09/17 16:16:17;;;;;;;2.77;1.67;;;8.00;99.90;;;;;;5103075;28;20177;-85
2022/09/17 16:18:43;;;;;;;4.20;2.80;;;8.00;99.90;;;;;;5085456;28;20180;-85
2022/09/17 16:21:13;;;;;;;3.60;2.50;;;8.00;99.90;;;;;;5102851;28;20210;-84
2022/09/17 16:23:40;;;;;;;7.03;2.60;;;8.10;99.90;;;;;;5085339;28;20218;-85
2022/09/17 16:26:11;;;;;;;21.17;12.73;;;8.10;99.90;;;;;;5084957;28;20259;-85
2022/09/17 16:28:38;;;;;;;7.00;4.53;;;8.00;99.90;;;;;;5099736;28;20167;-85
2022/09/17 16:31:04;;;;;;;4.03;3.27;;;8.10;99.90;;;;;;5100550;28;20174;-85
2022/09/17 16:33:30;;;;;;;3.57;2.47;;;8.10;99.90;;;;;;5080874;28;20210;-85
2022/09/17 16:35:57;;;;;;;4.47;3.47;;;8.10;99.90;;;;;;5100595;28;20182;-85
2022/09/17 16:38:23;;;;;;;2.77;2.50;;;8.20;99.90;;;;;;5081306;28;20183;-86
2022/09/17 16:40:50;;;;;;;6.07;4.20;;;8.20;99.90;;;;;;5082132;28;20718;-85
2022/09/17 16:43:16;;;;;;;4.80;4.10;;;8.20;99.90;;;;;;5081984;28;20211;-85
2022/09/17 16:45:43;;;;;;;2.40;2.00;;;8.20;99.90;;;;;;5101159;28;20183;-84
2022/09/17 16:48:09;;;;;;;3.77;3.47;;;8.20;99.90;;;;;;5083320;28;20207;-85
2022/09/17 16:50:38;;;;;;;5.30;4.43;;;8.10;99.90;;;;;;5083624;28;20179;-85
2022/09/17 16:53:04;;;;;;;8.57;5.97;;;8.10;99.90;;;;;;5083461;28;20207;-86
2022/09/17 16:55:30;;;;;;;2.27;2.03;;;8.10;99.90;;;;;;5101528;28;20171;-85
2022/09/17 16:57:57;;;;;;;2.10;1.90;;;8.00;99.90;;;;;;5084426;28;20183;-85
2022/09/17 17:00:23;;;;;;;3.30;2.27;;;8.00;99.90;;;;;;5080945;28;20183;-85
2022/09/17 17:02:56;;;;;;;5.10;3.10;;;7.90;99.90;;;;;;5081364;28;20253;-85
2022/09/17 17:05:24;;;;;;;2.37;2.13;;;7.90;99.90;;;;;;5100073;28;20169;-85
2022/09/17 17:07:50;;;;;;;2.63;2.30;;;7.90;99.90;;;;;;5098797;28;20641;-85
2022/09/17 17:10:16;;;;;;;4.70;3.80;;;7.80;99.90;;;;;;5082060;28;20184;-86
2022/09/17 17:12:41;;;;;;;3.83;3.17;;;7.80;99.90;;;;;;5082021;28;20737;-85
2022/09/17 17:15:09;;;;;;;6.63;5.40;;;7.80;99.90;;;;;;5082020;28;20182;-85
2022/09/17 17:17:35;;;;;;;2.90;2.57;;;7.70;99.90;;;;;;5082004;28;20640;-85
2022/09/17 17:20:12;;;;;;;6.47;4.70;;;7.70;99.90;;;;;;5082104;28;20205;-86
2022/09/17 17:22:39;;;;;;;3.43;2.43;;;7.70;99.90;;;;;;5080798;28;20206;-86
2022/09/17 17:25:06;;;;;;;5.70;5.00;;;7.70;99.90;;;;;;5079933;28;20201;-86
2022/09/17 17:27:32;;;;;;;9.20;5.77;;;7.70;99.90;;;;;;5099161;28;20213;-85
2022/09/17 17:30:00;;;;;;;7.83;4.20;;;7.70;99.90;;;;;;5100837;28;20167;-86
2022/09/17 17:32:26;;;;;;;5.03;4.00;;;7.70;99.90;;;;;;5101011;28;20193;-86
2022/09/17 17:34:52;;;;;;;3.53;2.70;;;7.70;99.90;;;;;;5082889;28;20185;-83
2022/09/17 17:37:17;;;;;;;6.53;4.73;;;7.70;99.90;;;;;;5102060;28;20405;-86
2022/09/17 17:39:43;;;;;;;6.57;4.20;;;7.70;99.90;;;;;;5083915;28;20588;-85
2022/09/17 17:42:09;;;;;;;3.60;2.87;;;7.70;99.90;;;;;;5100370;28;20685;-86
2022/09/17 17:44:34;;;;;;;5.53;3.10;;;7.70;99.90;;;;;;5083792;28;20226;-87
2022/09/17 17:47:00;;;;;;;3.03;2.40;;;7.70;99.90;;;;;;5085832;28;20238;-85
2022/09/17 17:49:26;;;;;;;4.07;2.80;;;7.70;99.90;;;;;;5085320;28;20178;-85
2022/09/17 17:51:52;;;;;;;4.97;3.20;;;7.60;99.90;;;;;;5084374;28;20653;-87
2022/09/17 17:54:18;;;;;;;4.43;3.47;;;7.60;99.90;;;;;;5085154;28;20545;-85
2022/09/17 17:56:44;;;;;;;3.27;2.93;;;7.60;99.90;;;;;;5086624;28;20178;-86
2022/09/17 17:59:10;;;;;;;4.67;3.10;;;7.60;99.90;;;;;;5087349;28;20597;-86
2022/09/17 18:01:37;;;;;;;5.07;3.73;;;7.60;99.90;;;;;;5085171;28;20190;-86
2022/09/17 18:04:06;;;;;;;5.87;3.97;;;7.60;99.90;;;;;;5083522;28;20343;-84
2022/09/17 18:06:33;;;;;;;4.67;4.17;;;7.60;99.90;;;;;;5083938;28;20168;-84
2022/09/17 18:08:59;;;;;;;4.07;3.60;;;7.60;99.90;;;;;;5082711;28;20174;-85
2022/09/17 18:11:25;;;;;;;7.13;3.67;;;7.60;99.90;;;;;;5083358;28;20179;-86
2022/09/17 18:13:54;;;;;;;8.53;4.50;;;7.60;99.90;;;;;;5083219;28;20293;-84
2022/09/17 18:16:20;;;;;;;9.00;5.10;;;7.60;99.90;;;;;;5101812;28;20200;-87
2022/09/17 18:18:47;;;;;;;5.47;3.87;;;7.70;99.90;;;;;;5082609;28;20178;-85
2022/09/17 18:21:19;;;;;;;4.27;2.97;;;7.60;99.90;;;;;;5101800;28;20175;-85
2022/09/17 18:23:45;;;;;;;4.00;3.23;;;7.70;99.90;;;;;;5084211;28;20703;-86
2022/09/17 18:26:15;;;;;;;4.60;3.13;;;7.70;99.90;;;;;;5102353;28;20178;-86
2022/09/17 18:28:41;;;;;;;7.53;3.83;;;7.70;99.90;;;;;;5083147;28;20168;-85
2022/09/17 18:31:21;;;;;;;7.13;4.03;;;7.80;99.90;;;;;;5083862;28;20246;-85
2022/09/17 18:33:48;;;;;;;3.03;2.73;;;7.80;99.90;;;;;;5083687;28;20197;-86
2022/09/17 18:36:14;;;;;;;3.63;3.30;;;7.80;99.90;;;;;;5082877;28;20205;-85
2022/09/17 18:38:39;;;;;;;3.30;3.00;;;7.80;99.90;;;;;;5082629;28;20181;-85
2022/09/17 18:41:08;;;;;;;5.10;3.43;;;7.80;99.90;;;;;;5082842;28;20637;-85
2022/09/17 18:43:33;;;;;;;3.87;3.57;;;7.80;99.90;;;;;;5083156;28;20210;-85
2022/09/17 18:46:00;;;;;;;5.83;3.10;;;7.80;99.90;;;;;;5083373;28;20199;-85
2022/09/17 18:48:26;;;;;;;3.70;2.87;;;7.70;99.90;;;;;;5083444;28;20170;-86
2022/09/17 18:50:59;;;;;;;2.97;2.23;;;7.80;99.90;;;;;;5084153;28;20180;-85
2022/09/17 18:53:26;;;;;;;3.30;2.30;;;7.80;99.90;;;;;;5102493;28;20212;-84
2022/09/17 18:55:54;;;;;;;2.60;2.40;;;7.80;99.90;;;;;;5084051;28;20237;-85
2022/09/17 18:58:20;;;;;;;3.37;2.63;;;7.90;99.90;;;;;;5083814;28;20185;-84
2022/09/17 19:00:46;;;;;;;2.33;2.13;;;7.90;99.90;;;;;;5083564;28;20175;-85
2022/09/17 19:03:12;;;;;;;2.93;2.27;;;7.80;99.90;;;;;;5101266;28;20194;-85
2022/09/17 19:05:37;;;;;;;5.27;2.47;;;7.90;99.90;;;;;;5099827;28;20181;-85
2022/09/17 19:08:03;;;;;;;3.27;2.23;;;7.90;99.90;;;;;;5081148;28;20182;-84
2022/09/17 19:10:32;;;;;;;2.37;1.83;;;8.00;99.90;;;;;;5081296;28;20179;-86
2022/09/17 19:12:57;;;;;;;3.83;2.10;;;8.00;99.90;;;;;;5099602;28;20568;-85
2022/09/17 19:15:24;;;;;;;2.23;1.77;;;8.00;99.90;;;;;;5081068;28;20184;-86
2022/09/17 19:17:49;;;;;;;5.67;2.40;;;8.00;99.90;;;;;;5098667;28;20190;-85
2022/09/17 19:20:18;;;;;;;3.83;3.00;;;8.00;99.90;;;;;;5080493;28;20181;-85
2022/09/17 19:22:44;;;;;;;2.50;2.30;;;8.00;99.90;;;;;;5082074;28;20196;-85
2022/09/17 19:25:10;;;;;;;2.00;1.83;;;8.00;99.90;;;;;;5083382;28;20203;-86
2022/09/17 19:27:36;;;;;;;2.97;1.97;;;8.00;99.90;;;;;;5101345;28;20192;-86
2022/09/17 19:30:02;;;;;;;3.33;1.93;;;8.00;99.90;;;;;;5101350;28;20189;-86
2022/09/17 19:32:27;;;;;;;2.80;2.43;;;8.00;99.90;;;;;;5084378;28;20227;-85
2022/09/17 19:34:54;;;;;;;2.53;1.90;;;8.00;99.90;;;;;;5083324;28;20548;-85
2022/09/17 19:37:19;;;;;;;3.13;2.70;;;8.00;99.90;;;;;;5101488;28;20180;-85
2022/09/17 19:39:45;;;;;;;2.40;2.20;;;8.10;99.90;;;;;;5102100;28;20202;-87
2022/09/17 19:42:11;;;;;;;2.50;2.00;;;8.10;99.90;;;;;;5083476;28;20205;-85
2022/09/17 19:44:37;;;;;;;1.83;1.60;;;8.10;99.90;;;;;;5083333;28;20661;-86
2022/09/17 19:47:03;;;;;;;4.23;1.60;;;8.10;99.90;;;;;;5101793;28;20231;-86
2022/09/17 19:49:28;;;;;;;12.13;9.10;;;8.20;99.90;;;;;;5083448;28;20200;-85
2022/09/17 19:51:54;;;;;;;3.53;1.90;;;8.20;99.90;;;;;;5083586;28;20271;-84
2022/09/17 19:54:20;;;;;;;4.40;1.97;;;8.20;99.90;;;;;;5083515;28;20183;-86
2022/09/17 19:56:46;;;;;;;3.40;1.77;;;8.20;99.90;;;;;;5084275;28;20212;-85
2022/09/17 19:59:12;;;;;;;2.90;1.80;;;;;;;;;;5083688;28;20186;-83
2022/09/17 20:01:38;;;;;;;3.33;2.30;;;8.20;99.90;;;;;;5101944;28;20168;-83
2022/09/17 20:04:05;;;;;;;2.90;2.30;;;8.20;99.90;;;;;;5083593;28;20226;-84
2022/09/17 20:06:33;;;;;;;2.77;1.73;;;8.20;99.90;;;;;;5084206;28;20544;-84
2022/09/17 20:08:59;;;;;;;3.67;3.00;;;8.10;99.90;;;;;;5103137;28;20514;-83
2022/09/17 20:11:25;;;;;;;2.70;1.70;;;8.10;99.90;;;;;;5083001;28;20180;-82
2022/09/17 20:14:05;;;;;;;2.00;1.70;;;8.00;99.90;;;;;;5083236;28;20233;-84
2022/09/17 20:16:32;;;;;;;2.30;1.60;;;8.00;99.90;;;;;;5082141;28;20168;-84
2022/09/17 20:18:58;;;;;;;4.43;3.90;;;8.00;99.90;;;;;;5082804;28;20180;-83
2022/09/17 20:21:28;;;;;;;2.23;1.50;;;7.90;99.90;;;;;;5100174;28;20635;-83
2022/09/17 20:23:55;;;;;;;4.23;1.60;;;7.90;99.90;;;;;;5100914;28;20568;-84
2022/09/17 20:26:21;;;;;;;2.73;1.93;;;7.90;99.90;;;;;;5082866;28;20176;-84
2022/09/17 20:28:49;;;;;;;1.60;1.50;;;7.90;99.90;;;;;;5083258;28;20172;-85